createdAt,value
2023-02-27T00:00:40.616Z,103241.28
2023-02-27T00:03:07.115Z,103238.72
2023-02-27T00:05:33.568Z,103239.72
2023-02-27T00:08:00.063Z,103243.13
2023-02-27T00:10:26.546Z,103235.28
2023-02-27T00:12:53.049Z,103255.06
2023-02-27T00:15:20.574Z,103248.81
2023-02-27T00:17:47.077Z,103249.47
2023-02-27T00:20:16.035Z,103244.34
2023-02-27T00:22:43.586Z,103253.91
2023-02-27T00:25:11.390Z,103243.47
2023-02-27T00:27:38.181Z,103243.47
2023-02-27T00:30:06.910Z,103238.38
2023-02-27T00:32:33.728Z,103232.44
2023-02-27T00:35:00.303Z,103226.28
2023-02-27T00:37:26.831Z,103235.59
2023-02-27T00:39:53.390Z,103233.88
2023-02-27T00:42:19.835Z,103239.94
2023-02-27T00:44:46.304Z,103232.19
2023-02-27T00:47:12.752Z,103232.44
2023-02-27T00:49:39.202Z,103228.25
2023-02-27T00:52:05.824Z,103222.22
2023-02-27T00:54:32.279Z,103228.28
2023-02-27T00:56:58.794Z,103219.72
2023-02-27T00:59:25.292Z,103222.34
2023-02-27T01:01:51.764Z,103222.59
2023-02-27T01:04:18.276Z,103230.53
2023-02-27T01:06:44.799Z,103219.31
2023-02-27T01:09:11.334Z,103224.66
2023-02-27T01:11:37.941Z,103222.91
2023-02-27T01:14:05.041Z,103220.47
2023-02-27T01:16:31.692Z,103234.38
2023-02-27T01:18:58.232Z,103231.94
2023-02-27T01:21:25.120Z,103237.22
2023-02-27T01:23:51.917Z,103234.72
2023-02-27T01:26:18.357Z,103236.66
2023-02-27T01:28:44.843Z,103238.59
2023-02-27T01:31:11.329Z,103233.63
2023-02-27T01:33:37.817Z,103225.03
2023-02-27T01:36:04.840Z,103233.88
2023-02-27T01:38:31.406Z,103229.66
2023-02-27T01:40:57.976Z,103224.69
2023-02-27T01:43:24.447Z,103221.38
2023-02-27T01:45:51.180Z,103225.94
2023-02-27T01:48:37.275Z,103221.72
2023-02-27T01:51:08.780Z,103225.38
2023-02-27T01:53:38.105Z,103227.25
2023-02-27T01:56:16.548Z,103223.09
2023-02-27T01:58:45.605Z,103227.63
2023-02-27T02:01:12.076Z,103226.03
2023-02-27T02:03:49.001Z,103219.44
2023-02-27T02:06:15.504Z,103214.34
2023-02-27T02:08:46.020Z,103225.56
2023-02-27T02:11:14.980Z,103225.75
2023-02-27T02:13:42.089Z,103219.75
2023-02-27T02:16:17.657Z,103233.91
2023-02-27T02:19:11.285Z,103218.56
2023-02-27T02:22:12.381Z,103227.56
2023-02-27T02:24:50.601Z,103225.06
2023-02-27T02:27:30.927Z,103226.97
2023-02-27T02:30:13.738Z,103222.75
2023-02-27T02:33:01.597Z,103224.47
2023-02-27T02:35:40.040Z,103234.78
2023-02-27T02:38:06.454Z,103227.91
2023-02-27T02:41:00.342Z,103220.28
2023-02-27T02:43:46.457Z,103228.09
2023-02-27T02:46:36.212Z,103235.09
2023-02-27T02:49:19.151Z,103235.28
2023-02-27T02:52:01.185Z,103231.13
2023-02-27T02:54:43.216Z,103231.22
2023-02-27T02:57:23.704Z,103230.28
2023-02-27T03:00:14.742Z,103237.19
2023-02-27T03:02:48.573Z,103235.53
2023-02-27T03:05:26.231Z,103243.44
2023-02-27T03:08:00.397Z,103239.22
2023-02-27T03:10:37.945Z,103231.41
2023-02-27T03:13:52.360Z,103233.03
2023-02-27T03:16:25.087Z,103229.69
2023-02-27T03:19:00.308Z,103239.03
2023-02-27T03:21:36.145Z,103241.63
2023-02-27T03:24:06.451Z,103233.97
2023-02-27T03:26:41.287Z,103239.91
2023-02-27T03:29:11.381Z,103240.63
2023-02-27T03:31:46.766Z,103233.78
2023-02-27T03:34:22.356Z,103232.19
2023-02-27T03:37:02.118Z,103229.81
2023-02-27T03:39:44.600Z,103229.06
2023-02-27T03:42:26.218Z,103222.16
2023-02-27T03:45:32.370Z,103224.06
2023-02-27T03:47:59.759Z,103226.09
2023-02-27T03:50:26.652Z,103217.66
2023-02-27T03:52:53.657Z,103227.16
2023-02-27T03:55:30.383Z,103221.88
2023-02-27T03:57:57.220Z,103219.16
2023-02-27T04:00:26.029Z,103223.34
2023-02-27T04:02:54.702Z,103227.47
2023-02-27T04:05:23.118Z,103228.28
2023-02-27T04:08:18.047Z,103240.41
2023-02-27T04:10:56.773Z,103246.78
2023-02-27T04:13:32.754Z,103248.63
2023-02-27T04:16:15.603Z,103253.13
2023-02-27T04:19:12.836Z,103251.31
2023-02-27T04:21:56.201Z,103258.38
2023-02-27T04:24:43.890Z,103253.19
2023-02-27T04:27:35.377Z,103261.81
2023-02-27T04:30:07.840Z,103274.81
2023-02-27T04:32:57.309Z,103270.53
2023-02-27T04:35:34.522Z,103264.50
2023-02-27T04:38:09.546Z,103274.81
2023-02-27T04:41:00.080Z,103272.22
2023-02-27T04:43:28.387Z,103269.78
2023-02-27T04:45:57.646Z,103284.50
2023-02-27T04:48:28.330Z,103269.00
2023-02-27T04:51:05.403Z,103277.59
2023-02-27T04:53:39.001Z,103274.19
2023-02-27T04:56:14.306Z,103282.94
2023-02-27T04:58:51.887Z,103280.38
2023-02-27T05:01:30.875Z,103277.16
2023-02-27T05:04:00.373Z,103273.75
2023-02-27T05:06:35.320Z,103280.56
2023-02-27T05:09:08.956Z,103276.19
2023-02-27T05:11:52.688Z,103275.53
2023-02-27T05:14:26.271Z,103271.94
2023-02-27T05:17:17.767Z,103286.84
2023-02-27T05:19:45.960Z,103282.63
2023-02-27T05:22:24.113Z,103287.94
2023-02-27T05:25:03.988Z,103293.13
2023-02-27T05:27:48.516Z,103298.25
2023-02-27T05:30:24.133Z,103289.53
2023-02-27T05:33:01.855Z,103297.16
2023-02-27T05:35:41.723Z,103298.81
2023-02-27T05:38:15.632Z,103297.09
2023-02-27T05:40:50.805Z,103296.28
2023-02-27T05:43:28.373Z,103306.69
2023-02-27T05:46:01.292Z,103301.38
2023-02-27T05:48:49.714Z,103295.31
2023-02-27T05:51:18.500Z,103293.56
2023-02-27T05:53:50.001Z,103294.28
2023-02-27T05:56:21.280Z,103301.22
2023-02-27T05:58:55.251Z,103298.44
2023-02-27T06:01:21.988Z,103304.53
2023-02-27T06:03:48.515Z,103316.63
2023-02-27T06:06:18.087Z,103307.94
2023-02-27T06:08:45.234Z,103304.47
2023-02-27T06:11:13.222Z,103316.47
2023-02-27T06:13:41.968Z,103307.66
2023-02-27T06:16:11.921Z,103324.91
2023-02-27T06:18:38.437Z,103332.59
2023-02-27T06:21:05.183Z,103332.63
2023-02-27T06:23:31.748Z,103337.72
2023-02-27T06:25:58.363Z,103339.56
2023-02-27T06:28:25.052Z,103352.44
2023-02-27T06:30:57.139Z,103349.06
2023-02-27T06:33:26.163Z,103355.09
2023-02-27T06:35:53.079Z,103358.66
2023-02-27T06:38:19.599Z,103369.97
2023-02-27T06:40:46.077Z,103367.38
2023-02-27T06:43:12.572Z,103356.06
2023-02-27T06:45:39.148Z,103362.16
2023-02-27T06:48:05.883Z,103357.84
2023-02-27T06:50:32.646Z,103359.47
2023-02-27T06:52:59.100Z,103353.28
2023-02-27T06:55:25.784Z,103368.63
2023-02-27T06:57:52.372Z,103361.53
2023-02-27T07:00:19.238Z,103370.75
2023-02-27T07:02:45.816Z,103370.56
2023-02-27T07:05:12.345Z,103373.00
2023-02-27T07:07:42.047Z,103378.00
2023-02-27T07:10:12.830Z,103368.19
2023-02-27T07:12:40.075Z,103374.88
2023-02-27T07:15:07.714Z,103365.16
2023-02-27T07:17:34.232Z,103372.88
2023-02-27T07:20:00.773Z,103371.78
2023-02-27T07:22:27.466Z,103366.53
2023-02-27T07:24:53.923Z,103372.38
2023-02-27T07:27:20.399Z,103371.34
2023-02-27T07:29:46.877Z,103366.03
2023-02-27T07:32:13.439Z,103377.84
2023-02-27T07:34:39.930Z,103374.94
2023-02-27T07:37:06.500Z,103370.22
2023-02-27T07:39:33.006Z,103365.66
2023-02-27T07:42:00.025Z,103372.38
2023-02-27T07:44:26.540Z,103363.47
2023-02-27T07:46:53.060Z,103367.63
2023-02-27T07:49:19.742Z,103368.25
2023-02-27T07:51:46.259Z,103365.50
2023-02-27T07:54:12.699Z,103360.88
2023-02-27T07:56:39.379Z,103376.09
2023-02-27T07:59:05.831Z,103368.78
2023-02-27T08:01:32.446Z,103377.25
2023-02-27T08:03:58.911Z,103379.41
2023-02-27T08:06:25.997Z,103374.84
2023-02-27T08:08:53.055Z,103374.50
2023-02-27T08:11:19.618Z,103381.06
2023-02-27T08:14:02.743Z,103397.91
2023-02-27T08:16:32.373Z,103384.47
2023-02-27T08:19:00.425Z,103389.09
2023-02-27T08:21:29.675Z,103384.50
2023-02-27T08:23:56.587Z,103390.19
2023-02-27T08:26:23.493Z,103386.41
2023-02-27T08:28:50.005Z,103390.34
2023-02-27T08:31:16.567Z,103386.38
2023-02-27T08:33:43.104Z,103385.25
2023-02-27T08:36:10.147Z,103395.22
2023-02-27T08:38:36.907Z,103394.75
2023-02-27T08:41:04.148Z,103391.72
2023-02-27T08:43:30.650Z,103398.34
2023-02-27T08:45:57.360Z,103402.97
2023-02-27T08:48:24.860Z,103409.59
2023-02-27T08:50:52.187Z,103407.38
2023-02-27T08:53:18.748Z,103407.25
2023-02-27T08:55:49.387Z,103412.66
2023-02-27T08:58:17.108Z,103414.78
2023-02-27T09:00:44.670Z,103414.38
2023-02-27T09:03:11.386Z,103416.41
2023-02-27T09:05:38.561Z,103413.44
2023-02-27T09:08:05.514Z,103419.00
2023-02-27T09:10:33.135Z,103420.50
2023-02-27T09:13:00.474Z,103427.03
2023-02-27T09:15:28.106Z,103422.25
2023-02-27T09:17:56.516Z,103418.13
2023-02-27T09:20:23.065Z,103431.63
2023-02-27T09:22:49.625Z,103416.44
2023-02-27T09:25:16.261Z,103417.53
2023-02-27T09:27:42.706Z,103415.59
2023-02-27T09:30:09.770Z,103410.31
2023-02-27T09:32:36.236Z,103414.44
2023-02-27T09:35:02.746Z,103422.94
2023-02-27T09:37:29.307Z,103405.84
2023-02-27T09:39:55.777Z,103411.41
2023-02-27T09:42:26.166Z,103416.19
2023-02-27T09:44:55.841Z,103413.91
2023-02-27T09:47:31.042Z,103418.63
2023-02-27T09:50:02.145Z,103421.59
2023-02-27T09:52:34.124Z,103414.75
2023-02-27T09:55:01.338Z,103423.84
2023-02-27T09:57:41.728Z,103409.44
2023-02-27T10:00:17.839Z,103412.25
2023-02-27T10:02:58.287Z,103426.63
2023-02-27T10:05:47.373Z,103417.44
2023-02-27T10:08:36.740Z,103416.75
2023-02-27T10:11:11.476Z,103413.69
2023-02-27T10:13:40.690Z,103408.00
2023-02-27T10:16:11.995Z,103412.06
2023-02-27T10:18:47.585Z,103405.75
2023-02-27T10:21:19.881Z,103405.44
2023-02-27T10:23:59.179Z,103403.94
2023-02-27T10:26:37.231Z,103397.72
2023-02-27T10:29:18.562Z,103403.91
2023-02-27T10:31:47.853Z,103396.34
2023-02-27T10:34:18.647Z,103404.75
2023-02-27T10:36:46.853Z,103400.78
2023-02-27T10:39:18.024Z,103407.50
2023-02-27T10:41:46.295Z,103404.44
2023-02-27T10:44:18.770Z,103399.06
2023-02-27T10:46:45.902Z,103398.47
2023-02-27T10:49:22.221Z,103406.72
2023-02-27T10:52:08.644Z,103398.47
2023-02-27T10:54:35.192Z,103396.41
2023-02-27T10:57:04.207Z,103399.31
2023-02-27T10:59:36.975Z,103394.63
2023-02-27T11:02:20.789Z,103391.88
2023-02-27T11:04:53.870Z,103387.09
2023-02-27T11:07:31.175Z,103384.03
2023-02-27T11:10:22.236Z,103387.47
2023-02-27T11:13:02.808Z,103384.47
2023-02-27T11:15:32.621Z,103377.13
2023-02-27T11:18:29.369Z,103379.97
2023-02-27T11:21:20.180Z,103379.59
2023-02-27T11:24:04.287Z,103357.09
2023-02-27T11:26:39.400Z,103360.66
2023-02-27T11:29:07.410Z,103363.94
2023-02-27T11:31:37.125Z,103348.09
2023-02-27T11:34:04.955Z,103347.97
2023-02-27T11:36:47.184Z,103345.81
2023-02-27T11:39:27.853Z,103344.00
2023-02-27T11:41:56.925Z,103328.50
2023-02-27T11:44:38.670Z,103331.78
2023-02-27T11:47:19.884Z,103326.38
2023-02-27T11:50:06.391Z,103335.72
2023-02-27T11:52:43.829Z,103318.94
2023-02-27T11:55:18.092Z,103326.50
2023-02-27T11:57:50.293Z,103326.84
2023-02-27T12:00:47.485Z,103331.88
2023-02-27T12:03:41.190Z,103336.06
2023-02-27T12:06:16.983Z,103328.19
2023-02-27T12:09:23.741Z,103323.81
2023-02-27T12:11:51.185Z,103322.44
2023-02-27T12:14:23.016Z,103311.09
2023-02-27T12:17:08.680Z,103308.81
2023-02-27T12:20:09.774Z,103311.78
2023-02-27T12:22:41.475Z,103319.81
2023-02-27T12:25:21.391Z,103319.44
2023-02-27T12:28:00.191Z,103316.00
2023-02-27T12:30:31.780Z,103306.97
2023-02-27T12:33:02.097Z,103297.06
2023-02-27T12:35:33.031Z,103290.63
2023-02-27T12:38:00.897Z,103300.84
2023-02-27T12:40:37.871Z,103293.44
2023-02-27T12:43:26.581Z,103300.06
2023-02-27T12:46:07.630Z,103290.69
2023-02-27T12:49:07.140Z,103295.81
2023-02-27T12:52:05.767Z,103292.88
2023-02-27T12:54:46.524Z,103290.84
2023-02-27T12:57:27.636Z,103293.97
2023-02-27T13:00:26.113Z,103298.78
2023-02-27T13:03:05.201Z,103299.50
2023-02-27T13:05:56.116Z,103303.66
2023-02-27T13:08:45.449Z,103303.72
2023-02-27T13:11:43.440Z,103290.06
2023-02-27T13:14:43.531Z,103284.03
2023-02-27T13:17:17.187Z,103276.88
2023-02-27T13:20:05.939Z,103281.19
2023-02-27T13:22:43.709Z,103284.16
2023-02-27T13:25:14.418Z,103271.56
2023-02-27T13:28:04.864Z,103279.19
2023-02-27T13:30:52.614Z,103284.44
2023-02-27T13:33:25.680Z,103274.06
2023-02-27T13:36:05.163Z,103271.06
2023-02-27T13:38:49.570Z,103279.09
2023-02-27T13:41:25.151Z,103278.69
2023-02-27T13:44:12.876Z,103274.13
2023-02-27T13:46:39.424Z,103270.56
2023-02-27T13:49:05.904Z,103275.88
2023-02-27T13:51:35.174Z,103274.31
2023-02-27T13:54:14.030Z,103266.25
2023-02-27T13:56:45.968Z,103270.53
2023-02-27T13:59:19.590Z,103257.75
2023-02-27T14:02:11.055Z,103256.28
2023-02-27T14:04:53.433Z,103266.06
2023-02-27T14:07:23.898Z,103261.41
2023-02-27T14:09:59.192Z,103275.97
2023-02-27T14:12:46.342Z,103261.88
2023-02-27T14:15:22.306Z,103273.25
2023-02-27T14:17:56.809Z,103257.41
2023-02-27T14:20:27.430Z,103257.00
2023-02-27T14:23:15.115Z,103253.38
2023-02-27T14:25:46.811Z,103263.38
2023-02-27T14:28:36.199Z,103254.00
2023-02-27T14:31:05.801Z,103254.06
2023-02-27T14:33:48.334Z,103254.06
2023-02-27T14:36:22.971Z,103256.72
2023-02-27T14:38:53.081Z,103260.78
2023-02-27T14:41:28.873Z,103261.09
2023-02-27T14:43:58.027Z,103260.47
2023-02-27T14:46:26.507Z,103255.09
2023-02-27T14:48:58.257Z,103254.44
2023-02-27T14:51:25.865Z,103267.66
2023-02-27T14:54:13.020Z,103265.72
2023-02-27T14:56:40.195Z,103263.78
2023-02-27T14:59:28.108Z,103270.69
2023-02-27T15:01:57.019Z,103255.19
2023-02-27T15:04:27.685Z,103259.38
2023-02-27T15:06:56.233Z,103244.72
2023-02-27T15:09:34.966Z,103251.72
2023-02-27T15:12:04.371Z,103245.44
2023-02-27T15:14:35.192Z,103246.97
2023-02-27T15:17:01.869Z,103261.56
2023-02-27T15:19:30.258Z,103253.66
2023-02-27T15:22:04.013Z,103251.00
2023-02-27T15:24:49.191Z,103253.72
2023-02-27T15:27:20.071Z,103268.47
2023-02-27T15:29:58.356Z,103270.53
2023-02-27T15:32:33.570Z,103259.53
2023-02-27T15:35:04.889Z,103270.81
2023-02-27T15:37:33.456Z,103273.72
2023-02-27T15:40:01.394Z,103266.00
2023-02-27T15:42:31.867Z,103269.41
2023-02-27T15:44:58.980Z,103268.50
2023-02-27T15:47:28.831Z,103276.53
2023-02-27T15:50:07.126Z,103276.88
2023-02-27T15:52:42.727Z,103267.25
2023-02-27T15:55:22.376Z,103272.09
2023-02-27T15:58:02.052Z,103277.44
2023-02-27T16:00:34.209Z,103274.75
2023-02-27T16:03:01.240Z,103273.78
2023-02-27T16:05:34.250Z,103279.13
2023-02-27T16:08:02.702Z,103269.06
2023-02-27T16:10:40.457Z,103261.34
2023-02-27T16:13:25.106Z,103258.75
2023-02-27T16:16:18.701Z,103260.94
2023-02-27T16:18:48.266Z,103267.88
2023-02-27T16:21:16.096Z,103252.69
2023-02-27T16:23:43.955Z,103261.88
2023-02-27T16:26:31.033Z,103275.03
2023-02-27T16:29:03.944Z,103265.59
2023-02-27T16:31:31.761Z,103277.81
2023-02-27T16:34:01.675Z,103285.63
2023-02-27T16:36:31.467Z,103273.00
2023-02-27T16:38:58.125Z,103282.25
2023-02-27T16:41:25.049Z,103280.34
2023-02-27T16:43:53.380Z,103275.63
2023-02-27T16:46:20.375Z,103278.56
2023-02-27T16:48:53.649Z,103279.59
2023-02-27T16:51:23.868Z,103278.19
2023-02-27T16:53:55.031Z,103288.88
2023-02-27T16:56:35.799Z,103292.34
2023-02-27T16:59:03.718Z,103295.94
2023-02-27T17:01:32.302Z,103294.03
2023-02-27T17:04:00.138Z,103290.16
2023-02-27T17:06:27.375Z,103295.16
2023-02-27T17:08:56.037Z,103291.38
2023-02-27T17:11:22.801Z,103295.22
2023-02-27T17:13:49.222Z,103300.19
2023-02-27T17:16:16.021Z,103295.66
2023-02-27T17:18:42.541Z,103303.25
2023-02-27T17:21:09.114Z,103306.31
2023-02-27T17:23:35.560Z,103310.84
2023-02-27T17:26:02.148Z,103305.84
2023-02-27T17:28:28.684Z,103315.88
2023-02-27T17:30:56.334Z,103312.66
2023-02-27T17:33:23.262Z,103320.06
2023-02-27T17:35:49.951Z,103317.09
2023-02-27T17:38:17.087Z,103313.44
2023-02-27T17:40:43.564Z,103320.75
2023-02-27T17:43:10.307Z,103319.22
2023-02-27T17:45:38.477Z,103325.94
2023-02-27T17:48:05.172Z,103326.28
2023-02-27T17:50:32.101Z,103323.97
2023-02-27T17:52:58.567Z,103327.09
2023-02-27T17:55:25.060Z,103337.88
2023-02-27T17:57:51.534Z,103335.66
2023-02-27T18:00:18.438Z,103329.78
2023-02-27T18:02:45.444Z,103335.25
2023-02-27T18:05:11.990Z,103326.06
2023-02-27T18:07:38.915Z,103339.53
2023-02-27T18:10:06.961Z,103338.41
2023-02-27T18:12:33.495Z,103344.28
2023-02-27T18:15:01.032Z,103342.13
2023-02-27T18:17:28.141Z,103346.22
2023-02-27T18:19:54.652Z,103339.88
2023-02-27T18:22:22.121Z,103339.28
2023-02-27T18:24:51.699Z,103340.44
2023-02-27T18:27:18.243Z,103348.53
2023-02-27T18:29:44.774Z,103361.75
2023-02-27T18:32:11.556Z,103342.97
2023-02-27T18:34:40.579Z,103345.81
2023-02-27T18:37:07.525Z,103350.59
2023-02-27T18:39:34.049Z,103353.38
2023-02-27T18:42:00.873Z,103356.16
2023-02-27T18:44:27.409Z,103366.41
2023-02-27T18:46:54.164Z,103361.25
2023-02-27T18:49:20.661Z,103369.88
2023-02-27T18:51:47.220Z,103375.00
2023-02-27T18:54:14.459Z,103386.25
2023-02-27T18:56:41.452Z,103375.97
2023-02-27T18:59:07.964Z,103383.78
2023-02-27T19:01:37.545Z,103377.03
2023-02-27T19:04:06.414Z,103380.38
2023-02-27T19:06:35.799Z,103388.59
2023-02-27T19:09:05.656Z,103389.53
2023-02-27T19:11:33.383Z,103388.97
2023-02-27T19:14:01.688Z,103389.13
2023-02-27T19:16:28.500Z,103391.13
2023-02-27T19:19:00.399Z,103382.31
2023-02-27T19:21:27.814Z,103381.94
2023-02-27T19:23:54.955Z,103395.50
2023-02-27T19:26:23.187Z,103384.72
2023-02-27T19:28:55.930Z,103390.59
2023-02-27T19:31:24.122Z,103391.50
2023-02-27T19:33:51.187Z,103382.84
2023-02-27T19:36:20.574Z,103387.81
2023-02-27T19:38:47.327Z,103389.28
2023-02-27T19:41:16.698Z,103393.53
2023-02-27T19:43:43.994Z,103382.31
2023-02-27T19:46:13.268Z,103390.75
2023-02-27T19:48:40.274Z,103394.31
2023-02-27T19:51:09.334Z,103396.47
2023-02-27T19:53:37.276Z,103396.59
2023-02-27T19:56:06.453Z,103410.66
2023-02-27T19:58:35.539Z,103411.00
2023-02-27T20:01:04.163Z,103406.91
2023-02-27T20:03:30.760Z,103404.63
2023-02-27T20:05:57.328Z,103418.47
2023-02-27T20:08:23.894Z,103408.34
2023-02-27T20:11:02.598Z,103411.25
2023-02-27T20:13:29.573Z,103415.16
2023-02-27T20:16:04.517Z,103411.84
2023-02-27T20:18:31.901Z,103412.03
2023-02-27T20:21:03.293Z,103419.09
2023-02-27T20:23:30.998Z,103406.28
2023-02-27T20:25:57.711Z,103410.59
2023-02-27T20:28:24.214Z,103413.94
2023-02-27T20:30:50.698Z,103412.13
2023-02-27T20:33:17.226Z,103417.41
2023-02-27T20:35:43.742Z,103412.41
2023-02-27T20:38:10.385Z,103415.06
2023-02-27T20:40:36.931Z,103415.22
2023-02-27T20:43:04.086Z,103413.50
2023-02-27T20:45:30.554Z,103406.78
2023-02-27T20:47:57.110Z,103407.84
2023-02-27T20:50:23.664Z,103415.91
2023-02-27T20:52:53.822Z,103407.53
2023-02-27T20:55:20.353Z,103405.97
2023-02-27T20:57:46.812Z,103405.31
2023-02-27T21:00:14.523Z,103411.47
2023-02-27T21:02:41.084Z,103422.22
2023-02-27T21:05:07.889Z,103415.69
2023-02-27T21:07:34.409Z,103418.44
2023-02-27T21:10:00.913Z,103409.28
2023-02-27T21:12:27.476Z,103408.56
2023-02-27T21:14:55.800Z,103405.06
2023-02-27T21:17:24.480Z,103392.91
2023-02-27T21:19:51.006Z,103402.59
2023-02-27T21:22:17.720Z,103411.44
2023-02-27T21:24:44.159Z,103415.09
2023-02-27T21:27:10.727Z,103411.88
2023-02-27T21:29:37.209Z,103412.00
2023-02-27T21:32:04.026Z,103416.28
2023-02-27T21:34:30.526Z,103416.47
2023-02-27T21:36:57.153Z,103413.97
2023-02-27T21:39:28.374Z,103415.81
2023-02-27T21:41:55.340Z,103422.81
2023-02-27T21:44:25.162Z,103409.81
2023-02-27T21:46:55.679Z,103418.56
2023-02-27T21:49:27.726Z,103420.41
2023-02-27T21:51:54.819Z,103426.56
2023-02-27T21:54:21.996Z,103433.50
2023-02-27T21:56:49.944Z,103435.19
2023-02-27T21:59:17.935Z,103432.75
2023-02-27T22:01:48.245Z,103420.78
2023-02-27T22:04:17.158Z,103429.59
2023-02-27T22:06:43.833Z,103434.00
2023-02-27T22:09:10.430Z,103440.13
2023-02-27T22:11:36.920Z,103435.81
2023-02-27T22:14:05.538Z,103438.47
2023-02-27T22:16:32.126Z,103418.66
2023-02-27T22:18:58.672Z,103427.44
2023-02-27T22:21:27.176Z,103429.06
2023-02-27T22:23:55.166Z,103421.44
2023-02-27T22:26:24.473Z,103431.91
2023-02-27T22:28:52.308Z,103420.97
2023-02-27T22:31:24.706Z,103412.59
2023-02-27T22:33:54.010Z,103419.88
2023-02-27T22:36:23.149Z,103421.09
2023-02-27T22:38:50.612Z,103423.88
2023-02-27T22:41:23.506Z,103432.75
2023-02-27T22:43:50.660Z,103439.03
2023-02-27T22:46:24.808Z,103439.28
2023-02-27T22:49:00.395Z,103457.56
2023-02-27T22:51:28.613Z,103440.38
2023-02-27T22:54:00.782Z,103444.72
2023-02-27T22:56:27.940Z,103442.94
2023-02-27T22:58:54.539Z,103427.44
2023-02-27T23:01:23.896Z,103445.44
2023-02-27T23:03:52.927Z,103443.69
2023-02-27T23:06:22.785Z,103445.50
2023-02-27T23:08:49.710Z,103444.72
2023-02-27T23:11:17.752Z,103440.50
2023-02-27T23:13:44.727Z,103444.97
2023-02-27T23:16:11.689Z,103438.97
2023-02-27T23:18:42.596Z,103435.72
2023-02-27T23:21:10.205Z,103435.78
2023-02-27T23:23:37.165Z,103444.47
2023-02-27T23:26:04.820Z,103454.94
2023-02-27T23:28:33.159Z,103454.94
2023-02-27T23:30:59.930Z,103448.84
2023-02-27T23:33:28.209Z,103447.25
2023-02-27T23:35:55.529Z,103457.56
2023-02-27T23:38:22.133Z,103459.28
2023-02-27T23:40:48.642Z,103449.63
2023-02-27T23:43:34.203Z,103458.13
2023-02-27T23:46:16.702Z,103464.03
2023-02-27T23:48:43.441Z,103463.00
2023-02-27T23:51:11.024Z,103452.66
2023-02-27T23:53:40.076Z,103456.69
2023-02-27T23:56:19.092Z,103452.19
2023-02-27T23:58:46.250Z,103451.09
